Muddy Creek Forks, Pennsylvania
Current Conditions -  °F | °C
As of 12:53 AM on Sunday 23 Nov 2014 (Local Time) from KLNS Reporting Station
Clear Clear  
Wind Chill: 34°   Ceiling: Unl
Heat Index: 34°   Visibility: 8mi
Dew Point: 24°   Wind: 3mph
Humidity: 67%   Direction: 100°E
Pressure: 30.2"   Gusts: NA
Location:  39.8258°N, 76.3995°W
Report Text: KLNS 230553Z AUTO 10003KT 8SM CLR 01/M04 A3020 RMK AO2 SLP229 T00111044 10039 20006 58003
Loading
Personal Weather Stations






























Interactive Weather Map New forecast layout! Learn more

10-Day Weather Forecast

Advertisements
Track Severe Weather on mobile